Time;durP1;ratioP1;P1;durP2;ratioP2;P2;SDS_P1;SDS_P2;PMS_P1;PMS_P2;Temp;Humidity;BMP_temperature;BMP_pressure;BME280_temperature;BME280_humidity;BME280_pressure;Samples;Min_cycle;Max_cycle;Signal;HPM_P1;HPM_P2
2022/08/29 00:02:19;;;;;;;10.53;3.60;;;17.50;99.90;;;;;;4871285;29;20241;-53
2022/08/29 00:04:47;;;;;;;12.40;4.17;;;17.40;99.90;;;;;;4870166;29;20259;-52
2022/08/29 00:07:15;;;;;;;8.57;3.50;;;17.40;99.90;;;;;;4870026;29;20236;-54
2022/08/29 00:09:43;;;;;;;9.70;3.27;;;17.30;99.90;;;;;;4868452;29;20257;-53
2022/08/29 00:12:13;;;;;;;12.13;3.33;;;17.30;99.90;;;;;;4870781;29;20304;-55
2022/08/29 00:14:41;;;;;;;12.97;3.70;;;17.30;99.90;;;;;;4871242;29;20247;-53
2022/08/29 00:17:09;;;;;;;8.80;3.30;;;17.20;99.90;;;;;;4870712;29;20253;-50
2022/08/29 00:19:37;;;;;;;11.33;3.47;;;17.20;99.90;;;;;;4868471;29;20271;-53
2022/08/29 00:22:05;;;;;;;9.07;3.60;;;17.20;99.90;;;;;;4847595;29;20235;-53
2022/08/29 00:24:33;;;;;;;12.80;3.80;;;17.30;99.90;;;;;;4849830;29;20243;-53
2022/08/29 00:27:01;;;;;;;13.00;4.10;;;17.30;99.90;;;;;;4849590;29;20236;-54
2022/08/29 00:29:31;;;;;;;9.93;3.87;;;17.30;99.90;;;;;;4830292;29;20331;-52
2022/08/29 00:31:59;;;;;;;8.87;3.57;;;17.40;99.90;;;;;;4850818;29;21083;-54
2022/08/29 00:34:27;;;;;;;11.27;3.50;;;17.40;99.90;;;;;;4850353;29;20247;-53
2022/08/29 00:36:55;;;;;;;15.63;3.73;;;17.40;99.90;;;;;;4848913;29;20243;-53
2022/08/29 00:39:24;;;;;;;14.03;4.57;;;17.50;99.90;;;;;;4847914;29;20318;-53
2022/08/29 00:41:53;;;;;;;10.77;3.67;;;17.40;99.90;;;;;;4849735;29;20845;-55
2022/08/29 00:44:21;;;;;;;14.20;4.20;;;17.50;99.90;;;;;;4849148;29;20234;-54
2022/08/29 00:46:54;;;;;;;11.87;3.50;;;17.50;99.90;;;;;;4848335;29;20235;-53
2022/08/29 00:49:31;;;;;;;13.37;3.93;;;17.50;99.90;;;;;;4846546;29;20727;-54
2022/08/29 00:52:05;;;;;;;11.07;3.87;;;17.50;99.90;;;;;;4848345;29;20244;-53
2022/08/29 00:54:33;;;;;;;11.90;3.80;;;17.50;99.90;;;;;;4850618;29;20711;-53
2022/08/29 00:57:02;;;;;;;11.90;3.77;;;17.50;99.90;;;;;;4848797;29;20236;-53
2022/08/29 00:59:33;;;;;;;10.77;3.67;;;17.50;99.90;;;;;;4847500;29;20249;-53
2022/08/29 01:02:03;;;;;;;10.43;3.83;;;17.50;99.90;;;;;;4848740;29;20716;-53
2022/08/29 01:04:32;;;;;;;11.67;3.80;;;17.50;99.90;;;;;;4848486;29;20254;-53
2022/08/29 01:07:01;;;;;;;11.30;3.57;;;17.60;99.90;;;;;;4848034;29;20246;-53
2022/08/29 01:09:30;;;;;;;13.33;3.80;;;17.60;99.90;;;;;;4846473;29;20228;-53
2022/08/29 01:12:15;;;;;;;12.40;4.20;;;17.60;99.90;;;;;;4848314;29;20240;-51
2022/08/29 01:14:48;;;;;;;10.70;4.20;;;17.60;99.90;;;;;;4848862;29;20235;-50
2022/08/29 01:17:20;;;;;;;11.80;4.37;;;17.60;99.90;;;;;;4848390;29;20263;-51
2022/08/29 01:19:54;;;;;;;13.53;4.17;;;17.60;99.90;;;;;;4847300;29;20251;-52
2022/08/29 01:22:47;;;;;;;10.53;3.37;;;17.60;99.90;;;;;;4866073;29;20313;-53
2022/08/29 01:25:20;;;;;;;11.20;3.77;;;17.60;99.90;;;;;;4867566;29;20230;-54
2022/08/29 01:28:00;;;;;;;11.20;3.90;;;17.60;99.90;;;;;;4866500;29;20235;-53
2022/08/29 01:30:28;;;;;;;13.40;4.47;;;17.60;99.90;;;;;;4864664;29;20247;-54
2022/08/29 01:32:59;;;;;;;9.60;3.67;;;17.60;99.90;;;;;;4867008;29;20607;-53
2022/08/29 01:35:28;;;;;;;12.10;4.27;;;17.50;99.90;;;;;;4867131;29;20772;-54
2022/08/29 01:37:56;;;;;;;9.90;4.23;;;17.60;99.90;;;;;;4867080;29;20250;-52
2022/08/29 01:40:29;;;;;;;13.67;4.20;;;17.60;99.90;;;;;;4864828;29;20252;-53
2022/08/29 01:42:58;;;;;;;11.17;4.07;;;17.60;99.90;;;;;;4868264;29;20325;-53
2022/08/29 01:45:26;;;;;;;12.63;4.30;;;17.60;99.90;;;;;;4867629;29;21000;-51
2022/08/29 01:47:54;;;;;;;15.07;4.17;;;17.50;99.90;;;;;;4865668;29;20277;-50
2022/08/29 01:50:22;;;;;;;12.90;4.13;;;17.60;99.90;;;;;;4865672;29;20889;-53
2022/08/29 01:52:50;;;;;;;14.43;4.00;;;17.60;99.90;;;;;;4865967;29;20244;-54
2022/08/29 01:55:19;;;;;;;14.27;4.23;;;17.60;99.90;;;;;;4866866;29;20235;-53
2022/08/29 01:57:48;;;;;;;12.73;4.40;;;17.60;99.90;;;;;;4869652;29;20242;-53
2022/08/29 02:00:18;;;;;;;11.33;4.73;;;17.60;99.90;;;;;;4869100;29;20242;-53
2022/08/29 02:02:46;;;;;;;13.80;4.03;;;17.70;99.90;;;;;;4868901;29;20239;-54
2022/08/29 02:05:14;;;;;;;10.67;3.97;;;17.70;99.90;;;;;;4868197;29;20231;-53
2022/08/29 02:07:43;;;;;;;13.17;4.37;;;17.60;99.90;;;;;;4868957;29;20243;-53
2022/08/29 02:10:11;;;;;;;13.27;4.20;;;17.70;99.90;;;;;;4868876;29;20249;-53
2022/08/29 02:12:39;;;;;;;10.53;4.10;;;17.70;99.90;;;;;;4870322;29;20244;-53
2022/08/29 02:15:10;;;;;;;11.80;3.80;;;17.70;99.90;;;;;;4868634;29;20250;-53
2022/08/29 02:17:38;;;;;;;12.23;4.00;;;17.80;99.90;;;;;;4870345;29;20261;-51
2022/08/29 02:20:08;;;;;;;12.00;4.17;;;17.80;99.90;;;;;;4866898;29;20251;-54
2022/08/29 02:22:36;;;;;;;10.30;4.20;;;17.70;99.90;;;;;;4868910;29;20599;-51
2022/08/29 02:25:40;;;;;;;10.77;4.07;;;17.70;99.90;;;;;;4869048;29;20247;-53
2022/08/29 02:27:57;;;;;;;12.67;4.30;;;17.70;99.90;;;;;;4868838;29;20612;-51
2022/08/29 02:30:26;;;;;;;11.37;4.57;;;17.70;99.90;;;;;;4867044;29;20243;-52
2022/08/29 02:32:54;;;;;;;13.27;4.33;;;17.70;99.90;;;;;;4870196;29;20235;-53
2022/08/29 02:35:23;;;;;;;14.30;4.40;;;17.70;99.90;;;;;;4870624;29;20249;-53
2022/08/29 02:37:51;;;;;;;11.40;4.20;;;17.70;99.90;;;;;;4867897;29;20520;-52
2022/08/29 02:40:19;;;;;;;13.70;4.77;;;17.70;99.90;;;;;;4870322;29;20319;-53
2022/08/29 02:42:59;;;;;;;13.70;4.40;;;17.60;99.90;;;;;;4869234;29;20242;-54
2022/08/29 02:45:28;;;;;;;11.80;4.97;;;17.60;99.90;;;;;;4868439;29;20238;-54
2022/08/29 02:47:57;;;;;;;9.53;4.37;;;17.60;99.90;;;;;;4868591;29;20717;-53
2022/08/29 02:50:25;;;;;;;13.53;4.97;;;17.50;99.90;;;;;;4868294;29;20334;-54
2022/08/29 02:52:54;;;;;;;9.23;4.33;;;17.50;99.90;;;;;;4869141;29;20870;-53
2022/08/29 02:55:23;;;;;;;11.87;4.80;;;17.50;99.90;;;;;;4869353;29;20760;-54
2022/08/29 02:57:52;;;;;;;11.07;4.93;;;17.50;99.90;;;;;;4868064;29;20842;-52
2022/08/29 03:00:23;;;;;;;13.93;4.60;;;17.50;99.90;;;;;;4867749;29;20243;-54
2022/08/29 03:02:55;;;;;;;12.20;4.30;;;17.50;99.90;;;;;;4848870;29;20235;-54
2022/08/29 03:05:26;;;;;;;13.47;5.23;;;17.50;99.90;;;;;;4868953;29;20235;-54
2022/08/29 03:07:55;;;;;;;16.40;4.60;;;17.50;99.90;;;;;;4867955;29;20227;-54
2022/08/29 03:10:23;;;;;;;10.37;4.30;;;17.60;99.90;;;;;;4868277;29;20267;-54
2022/08/29 03:12:51;;;;;;;10.00;4.13;;;17.60;99.90;;;;;;4868886;29;20228;-54
2022/08/29 03:15:20;;;;;;;13.13;4.90;;;17.60;99.90;;;;;;4869137;29;20272;-54
2022/08/29 03:17:49;;;;;;;14.77;5.13;;;17.60;99.90;;;;;;4870853;29;20231;-52
2022/08/29 03:20:20;;;;;;;12.63;4.50;;;17.70;99.90;;;;;;4870221;29;20286;-53
2022/08/29 03:22:49;;;;;;;12.80;5.23;;;17.80;99.90;;;;;;4869210;29;20258;-51
2022/08/29 03:25:17;;;;;;;12.40;5.47;;;17.80;99.90;;;;;;4869483;29;20228;-53
2022/08/29 03:27:47;;;;;;;13.97;5.40;;;17.80;99.90;;;;;;4863813;29;20264;-51
2022/08/29 03:30:17;;;;;;;12.00;4.73;;;17.80;99.90;;;;;;4863326;29;20240;-53
2022/08/29 03:32:45;;;;;;;13.67;5.60;;;17.90;99.90;;;;;;4855518;29;20283;-53
2022/08/29 03:35:13;;;;;;;12.93;5.80;;;17.80;99.90;;;;;;4859688;29;20915;-53
2022/08/29 03:37:43;;;;;;;13.33;5.20;;;17.80;99.90;;;;;;4869569;29;20246;-54
2022/08/29 03:40:12;;;;;;;10.53;5.00;;;17.80;99.90;;;;;;4866506;29;20665;-52
2022/08/29 03:42:41;;;;;;;11.67;5.30;;;17.70;99.90;;;;;;4866964;29;20254;-54
2022/08/29 03:45:12;;;;;;;13.43;5.80;;;17.70;99.90;;;;;;4868064;29;20246;-53
2022/08/29 03:47:41;;;;;;;10.80;4.83;;;17.70;99.90;;;;;;4870124;29;20325;-53
2022/08/29 03:50:10;;;;;;;14.33;5.53;;;17.70;99.90;;;;;;4866634;29;20578;-52
2022/08/29 03:52:43;;;;;;;15.83;5.97;;;17.70;99.90;;;;;;4867494;29;20231;-53
2022/08/29 03:55:11;;;;;;;13.27;5.37;;;17.60;99.90;;;;;;4868545;29;20240;-53
2022/08/29 03:57:40;;;;;;;15.50;5.57;;;17.60;99.90;;;;;;4866234;29;20250;-50
2022/08/29 04:00:12;;;;;;;13.63;5.70;;;17.60;99.90;;;;;;4862135;29;20334;-51
2022/08/29 04:02:40;;;;;;;13.17;5.60;;;17.60;99.90;;;;;;4868410;29;20255;-53
2022/08/29 04:05:10;;;;;;;12.77;5.77;;;17.50;99.90;;;;;;4868722;29;20247;-53
2022/08/29 04:07:46;;;;;;;12.67;5.13;;;17.50;99.90;;;;;;4869843;29;20596;-53
2022/08/29 04:10:18;;;;;;;10.27;5.17;;;17.40;99.90;;;;;;4865958;29;20322;-51
2022/08/29 04:12:46;;;;;;;14.50;5.57;;;17.40;99.90;;;;;;4866695;29;20711;-54
2022/08/29 04:15:21;;;;;;;12.70;5.50;;;17.30;99.90;;;;;;4868523;29;20316;-51
2022/08/29 04:17:53;;;;;;;13.43;5.90;;;17.30;99.90;;;;;;4864943;29;20318;-54
2022/08/29 04:20:23;;;;;;;13.17;5.67;;;17.30;99.90;;;;;;4865039;29;20267;-53
2022/08/29 04:22:55;;;;;;;10.57;5.40;;;17.30;99.90;;;;;;4865941;29;20770;-53
2022/08/29 04:25:25;;;;;;;13.23;5.60;;;17.20;99.90;;;;;;4868614;29;20715;-54
2022/08/29 04:27:53;;;;;;;9.67;5.53;;;17.20;99.90;;;;;;4865060;29;20241;-55
2022/08/29 04:30:25;;;;;;;12.97;6.13;;;17.20;99.90;;;;;;4868550;29;20236;-52
2022/08/29 04:32:53;;;;;;;11.57;5.40;;;17.20;99.90;;;;;;4868706;29;20708;-53
2022/08/29 04:35:21;;;;;;;10.13;5.83;;;17.20;99.90;;;;;;4867411;29;20240;-53
2022/08/29 04:37:49;;;;;;;11.70;5.60;;;17.20;99.90;;;;;;4870049;29;20250;-52
2022/08/29 04:40:21;;;;;;;10.23;5.77;;;17.20;99.90;;;;;;4864781;29;20242;-52
2022/08/29 04:42:50;;;;;;;11.23;6.10;;;17.20;99.90;;;;;;4868698;29;20244;-52
2022/08/29 04:45:21;;;;;;;10.63;5.47;;;17.20;99.90;;;;;;4866384;29;20713;-53
2022/08/29 04:47:50;;;;;;;11.27;5.80;;;17.10;99.90;;;;;;4866279;29;20712;-53
2022/08/29 04:50:21;;;;;;;12.00;5.60;;;17.10;99.90;;;;;;4864331;29;20261;-53
2022/08/29 04:52:53;;;;;;;9.47;5.27;;;17.10;99.90;;;;;;4867722;29;20237;-54
2022/08/29 04:55:23;;;;;;;10.40;6.03;;;17.10;99.90;;;;;;4865494;29;20234;-51
2022/08/29 04:57:55;;;;;;;10.30;5.00;;;17.10;99.90;;;;;;4865862;29;20721;-53
2022/08/29 05:00:27;;;;;;;10.20;6.53;;;17.20;99.90;;;;;;4865227;29;20256;-54
2022/08/29 05:02:58;;;;;;;9.07;5.60;;;17.20;99.90;;;;;;4864283;29;20718;-53
2022/08/29 05:05:26;;;;;;;10.03;5.87;;;17.20;99.90;;;;;;4863457;29;20371;-53
2022/08/29 05:07:54;;;;;;;7.77;5.53;;;17.20;99.90;;;;;;4863128;29;20238;-53
2022/08/29 05:10:25;;;;;;;9.87;5.83;;;17.20;99.90;;;;;;4864778;29;20239;-53
2022/08/29 05:12:53;;;;;;;8.70;5.77;;;17.30;99.90;;;;;;4866837;29;20285;-54
2022/08/29 05:15:21;;;;;;;9.83;6.97;;;17.30;99.90;;;;;;4865443;29;20259;-51
2022/08/29 05:17:49;;;;;;;8.67;6.50;;;17.40;99.90;;;;;;4865671;29;20334;-52
2022/08/29 05:20:17;;;;;;;11.63;7.53;;;17.40;99.90;;;;;;4864058;29;20266;-49
2022/08/29 05:22:45;;;;;;;11.67;7.90;;;17.40;99.90;;;;;;4864464;29;20239;-52
2022/08/29 05:25:14;;;;;;;8.93;7.00;;;17.50;99.90;;;;;;4865213;29;20250;-52
2022/08/29 05:27:46;;;;;;;12.70;6.87;;;17.50;99.90;;;;;;4865146;29;20250;-53
2022/08/29 05:30:16;;;;;;;8.63;6.87;;;17.50;99.90;;;;;;4865571;29;20250;-52
2022/08/29 05:33:01;;;;;;;9.70;7.23;;;17.60;99.90;;;;;;4865680;29;20240;-52
2022/08/29 05:35:29;;;;;;;11.20;6.60;;;17.70;99.90;;;;;;4864532;29;20476;-50
2022/08/29 05:37:58;;;;;;;12.80;7.33;;;17.80;99.90;;;;;;4865391;29;20708;-51
2022/08/29 05:40:26;;;;;;;8.67;6.30;;;17.80;99.90;;;;;;4866348;29;20241;-52
2022/08/29 05:42:55;;;;;;;7.67;6.80;;;17.90;99.90;;;;;;4865347;29;20256;-52
2022/08/29 05:45:23;;;;;;;7.13;5.93;;;18.00;99.90;;;;;;4866318;29;20235;-54
2022/08/29 05:47:52;;;;;;;7.70;5.53;;;18.10;99.90;;;;;;4865349;29;20729;-51
2022/08/29 05:50:20;;;;;;;6.47;5.43;;;18.20;99.90;;;;;;4863834;29;20736;-53
2022/08/29 05:52:48;;;;;;;7.93;5.60;;;18.30;99.90;;;;;;4855615;29;20236;-52
2022/08/29 05:55:16;;;;;;;5.13;4.63;;;18.50;99.90;;;;;;4867677;29;20762;-52
2022/08/29 05:57:44;;;;;;;7.07;5.47;;;18.60;99.90;;;;;;4869336;29;20335;-53
2022/08/29 06:00:15;;;;;;;6.50;5.13;;;18.70;99.90;;;;;;4863015;29;20250;-54
2022/08/29 06:02:43;;;;;;;6.70;5.13;;;18.80;99.90;;;;;;4862801;29;20284;-52
2022/08/29 06:05:11;;;;;;;6.40;4.97;;;18.90;99.90;;;;;;4867015;29;21267;-53
2022/08/29 06:07:39;;;;;;;5.93;4.73;;;19.00;99.90;;;;;;4866105;29;20250;-51
2022/08/29 06:10:08;;;;;;;6.53;5.53;;;19.10;99.90;;;;;;4865227;29;20236;-53
2022/08/29 06:12:36;;;;;;;7.40;5.40;;;19.20;99.90;;;;;;4864379;29;20244;-54
2022/08/29 06:15:06;;;;;;;7.27;4.43;;;19.30;99.90;;;;;;4858827;29;20229;-54
2022/08/29 06:17:36;;;;;;;7.13;4.40;;;19.40;99.90;;;;;;4880583;29;20248;-51
2022/08/29 06:20:08;;;;;;;6.33;4.40;;;19.60;99.90;;;;;;4879232;29;20271;-53
2022/08/29 06:22:37;;;;;;;6.50;4.50;;;19.60;99.90;;;;;;4866144;29;20328;-52
2022/08/29 06:25:09;;;;;;;4.47;3.93;;;19.80;99.90;;;;;;4859082;29;20245;-52
2022/08/29 06:27:57;;;;;;;5.30;3.70;;;20.00;99.90;;;;;;4867345;29;20240;-53
2022/08/29 06:30:25;;;;;;;4.47;3.80;;;20.20;99.90;;;;;;4865927;29;20245;-52
2022/08/29 06:32:54;;;;;;;4.67;4.07;;;20.30;99.90;;;;;;4858637;29;20705;-53
2022/08/29 06:35:22;;;;;;;4.60;3.97;;;20.40;99.90;;;;;;4862161;29;20229;-52
2022/08/29 06:37:51;;;;;;;5.17;3.60;;;20.40;99.90;;;;;;4865964;29;20675;-53
2022/08/29 06:40:19;;;;;;;4.10;3.40;;;20.40;99.90;;;;;;4860513;29;20736;-51
2022/08/29 06:42:47;;;;;;;4.97;3.37;;;20.60;99.90;;;;;;4870915;29;20323;-50
2022/08/29 06:45:15;;;;;;;3.73;2.93;;;20.70;99.90;;;;;;4884686;29;20248;-53
2022/08/29 06:47:46;;;;;;;3.80;2.97;;;20.50;99.90;;;;;;4868821;29;20247;-54
2022/08/29 06:50:16;;;;;;;5.87;3.07;;;20.40;99.90;;;;;;4861044;29;20247;-52
2022/08/29 06:52:44;;;;;;;2.47;2.27;;;20.30;99.90;;;;;;4873442;29;20255;-53
2022/08/29 06:55:14;;;;;;;4.03;2.70;;;20.20;99.90;;;;;;4873861;29;20244;-53
2022/08/29 06:57:44;;;;;;;3.13;2.90;;;20.10;99.90;;;;;;4880050;29;20804;-54
2022/08/29 07:00:14;;;;;;;3.10;2.80;;;20.10;99.90;;;;;;4849786;29;20787;-53
2022/08/29 07:02:50;;;;;;;3.87;2.77;;;19.90;99.90;;;;;;4863632;29;20837;-51
2022/08/29 07:05:21;;;;;;;3.63;2.53;;;20.00;99.90;;;;;;4867875;29;20248;-52
2022/08/29 07:07:50;;;;;;;2.93;2.40;;;20.30;99.90;;;;;;4866579;29;20255;-53
2022/08/29 07:10:18;;;;;;;3.73;2.37;;;20.60;99.90;;;;;;4868346;29;20247;-53
2022/08/29 07:12:50;;;;;;;2.50;2.27;;;20.70;99.90;;;;;;4866886;29;20247;-52
2022/08/29 07:15:19;;;;;;;2.63;2.23;;;20.90;99.90;;;;;;4873382;29;20229;-54
2022/08/29 07:17:48;;;;;;;2.33;2.00;;;21.20;99.90;;;;;;4872366;29;20260;-51
2022/08/29 07:20:17;;;;;;;2.60;2.13;;;21.50;99.90;;;;;;4865739;29;20239;-53
2022/08/29 07:22:50;;;;;;;2.40;2.20;;;21.70;99.90;;;;;;4882179;29;20736;-53
2022/08/29 07:25:19;;;;;;;2.77;2.20;;;21.80;99.90;;;;;;4887401;29;20241;-54
2022/08/29 07:27:49;;;;;;;3.73;2.13;;;22.00;99.90;;;;;;4858400;29;20246;-54
2022/08/29 07:30:20;;;;;;;2.13;1.87;;;22.10;99.90;;;;;;4868365;29;20253;-53
2022/08/29 07:32:48;;;;;;;2.50;2.00;;;22.20;99.90;;;;;;4867235;29;20234;-53
2022/08/29 07:35:17;;;;;;;5.03;2.37;;;22.10;99.90;;;;;;4867722;29;20234;-53
2022/08/29 07:37:59;;;;;;;2.53;1.77;;;21.70;99.90;;;;;;4864293;29;20236;-52
2022/08/29 07:40:28;;;;;;;2.47;1.83;;;21.40;99.90;;;;;;4870511;29;20266;-54
2022/08/29 07:42:56;;;;;;;4.87;1.87;;;21.10;99.90;;;;;;4867887;29;20265;-51
2022/08/29 07:45:24;;;;;;;2.70;1.83;;;20.90;99.90;;;;;;4860389;29;20237;-53
2022/08/29 07:47:52;;;;;;;3.73;1.70;;;20.80;99.90;;;;;;4864510;29;20280;-51
2022/08/29 07:50:20;;;;;;;3.70;1.60;;;20.70;99.90;;;;;;4866355;29;20718;-53
2022/08/29 07:52:49;;;;;;;2.73;1.60;;;21.00;99.90;;;;;;4866313;29;20239;-53
2022/08/29 07:55:20;;;;;;;2.03;1.40;;;21.30;99.90;;;;;;4867398;29;20237;-53
2022/08/29 07:57:51;;;;;;;1.57;1.47;;;21.80;99.90;;;;;;4866409;29;20231;-53
2022/08/29 08:00:20;;;;;;;1.93;1.60;;;22.20;99.90;;;;;;4856474;29;20269;-54
2022/08/29 08:02:48;;;;;;;1.50;1.20;;;22.70;99.90;;;;;;4858226;29;20592;-54
2022/08/29 08:05:16;;;;;;;1.57;1.40;;;22.70;99.90;;;;;;4871026;29;20318;-54
2022/08/29 08:07:45;;;;;;;2.40;1.03;;;23.10;99.90;;;;;;4872037;29;20249;-53
2022/08/29 08:10:15;;;;;;;3.03;1.33;;;23.20;99.90;;;;;;4871216;29;20245;-54
2022/08/29 08:12:46;;;;;;;3.13;1.20;;;23.50;99.90;;;;;;4871729;29;20241;-53
2022/08/29 08:15:15;;;;;;;1.00;0.90;;;23.10;99.90;;;;;;4867071;29;20668;-53
2022/08/29 08:17:44;;;;;;;3.50;1.00;;;23.20;99.90;;;;;;4866844;29;20606;-52
2022/08/29 08:20:12;;;;;;;2.47;1.10;;;23.60;99.90;;;;;;4867170;29;20254;-54
2022/08/29 08:22:40;;;;;;;1.17;1.07;;;24.00;99.90;;;;;;4865272;29;20238;-55
2022/08/29 08:25:09;;;;;;;1.97;1.23;;;24.30;99.90;;;;;;4873659;29;20231;-55
2022/08/29 08:27:37;;;;;;;1.37;1.10;;;24.60;99.90;;;;;;4883664;29;20249;-53
2022/08/29 08:30:13;;;;;;;1.33;1.17;;;24.40;99.90;;;;;;4869823;29;20243;-54
2022/08/29 08:32:41;;;;;;;1.30;1.00;;;24.30;99.90;;;;;;4866886;29;20253;-54
2022/08/29 08:35:15;;;;;;;1.83;1.20;;;24.00;99.90;;;;;;4869337;29;20354;-52
2022/08/29 08:37:43;;;;;;;2.40;1.43;;;24.20;99.90;;;;;;4852831;29;20246;-54
2022/08/29 08:40:19;;;;;;;1.63;1.37;;;23.90;99.90;;;;;;4860140;29;20242;-52
2022/08/29 08:42:48;;;;;;;1.53;1.20;;;23.60;99.90;;;;;;4852835;29;20294;-54
2022/08/29 08:45:21;;;;;;;3.23;1.30;;;23.90;99.90;;;;;;4863347;29;20231;-53
2022/08/29 08:47:51;;;;;;;1.23;1.17;;;23.80;99.90;;;;;;4856890;29;20619;-54
2022/08/29 08:50:25;;;;;;;1.87;1.30;;;23.50;99.90;;;;;;4857134;29;20246;-54
2022/08/29 08:52:58;;;;;;;2.00;1.40;;;23.20;99.90;;;;;;4856590;29;20248;-53
2022/08/29 08:55:33;;;;;;;1.00;1.00;;;23.00;99.90;;;;;;4853237;29;20242;-54
2022/08/29 08:58:09;;;;;;;1.70;1.03;;;23.50;99.90;;;;;;4863596;29;20885;-55
2022/08/29 09:00:44;;;;;;;1.03;1.00;;;23.80;99.90;;;;;;4864089;29;20246;-55
2022/08/29 09:03:25;;;;;;;1.77;1.20;;;23.80;99.90;;;;;;4864513;29;20249;-55
2022/08/29 09:06:07;;;;;;;1.30;1.20;;;23.60;99.90;;;;;;4864516;29;20712;-52
2022/08/29 09:08:46;;;;;;;1.30;1.20;;;23.50;99.90;;;;;;4880642;29;20251;-54
2022/08/29 09:11:26;;;;;;;2.63;1.50;;;23.40;99.90;;;;;;4881649;29;20238;-53
2022/08/29 09:14:02;;;;;;;2.80;1.60;;;23.30;99.90;;;;;;4882466;29;20236;-54
2022/08/29 09:16:37;;;;;;;1.50;1.40;;;23.20;99.90;;;;;;4884624;29;20233;-54
2022/08/29 09:19:08;;;;;;;2.50;1.20;;;23.20;99.90;;;;;;4883186;29;20229;-54
2022/08/29 09:21:42;;;;;;;1.70;1.30;;;23.30;99.90;;;;;;4882355;29;20253;-55
2022/08/29 09:24:17;;;;;;;2.03;1.60;;;23.20;99.90;;;;;;4881080;29;20232;-55
2022/08/29 09:26:45;;;;;;;2.23;1.30;;;23.10;99.90;;;;;;4882987;29;20255;-53
2022/08/29 09:29:13;;;;;;;1.57;1.10;;;23.10;99.90;;;;;;4881177;29;20253;-53
2022/08/29 09:31:43;;;;;;;1.90;1.37;;;23.20;99.90;;;;;;4881128;29;20244;-55
2022/08/29 09:34:14;;;;;;;1.57;1.40;;;23.30;99.90;;;;;;4881080;29;20233;-55
2022/08/29 09:36:45;;;;;;;1.33;1.17;;;23.30;99.90;;;;;;4882502;29;20733;-54
2022/08/29 09:39:21;;;;;;;1.13;1.10;;;23.30;99.90;;;;;;4861182;29;20962;-53
2022/08/29 09:41:51;;;;;;;2.47;1.30;;;23.30;99.90;;;;;;4853678;29;20238;-55
2022/08/29 09:44:26;;;;;;;1.10;1.00;;;23.20;99.90;;;;;;4861348;29;20242;-54
2022/08/29 09:47:10;;;;;;;1.80;1.10;;;23.30;99.90;;;;;;4869408;29;20250;-53
2022/08/29 09:49:40;;;;;;;1.53;0.97;;;23.30;99.90;;;;;;4867821;29;20236;-54
2022/08/29 09:52:13;;;;;;;2.20;1.30;;;23.10;99.90;;;;;;4880858;29;20233;-54
2022/08/29 09:54:42;;;;;;;1.57;1.30;;;23.10;99.90;;;;;;4880747;29;20720;-53
2022/08/29 09:57:21;;;;;;;1.93;1.33;;;23.20;99.90;;;;;;4881488;29;20269;-55
2022/08/29 10:00:06;;;;;;;1.27;1.13;;;23.10;99.90;;;;;;4880897;29;20242;-54
2022/08/29 10:02:43;;;;;;;2.03;1.00;;;23.00;99.90;;;;;;4874815;29;20245;-55
2022/08/29 10:05:32;;;;;;;1.73;1.10;;;23.00;99.90;;;;;;4861013;29;20238;-52
2022/08/29 10:08:01;;;;;;;1.20;1.10;;;23.20;99.90;;;;;;4861117;29;20252;-54
2022/08/29 10:10:33;;;;;;;1.20;1.10;;;23.00;99.90;;;;;;4867048;29;20545;-54
2022/08/29 10:13:07;;;;;;;1.47;1.10;;;23.00;99.90;;;;;;4861589;29;20591;-54
2022/08/29 10:15:40;;;;;;;1.23;0.83;;;23.10;99.90;;;;;;4859571;29;21241;-54
2022/08/29 10:18:34;;;;;;;1.37;1.27;;;23.20;99.90;;;;;;4867851;29;20698;-54
2022/08/29 10:21:12;;;;;;;0.87;0.80;;;23.10;99.90;;;;;;4863157;29;20253;-54
2022/08/29 10:23:51;;;;;;;1.97;1.00;;;23.10;99.90;;;;;;4868402;29;20238;-54
2022/08/29 10:26:33;;;;;;;1.43;0.97;;;23.10;99.90;;;;;;4866138;29;20236;-53
2022/08/29 10:29:08;;;;;;;1.17;1.07;;;22.80;99.90;;;;;;4876249;29;20237;-53
2022/08/29 10:31:40;;;;;;;2.67;1.03;;;22.70;99.90;;;;;;4882482;29;20264;-54
2022/08/29 10:34:31;;;;;;;1.67;0.90;;;22.80;99.90;;;;;;4882941;29;20233;-54
2022/08/29 10:37:05;;;;;;;1.67;0.90;;;23.20;99.90;;;;;;4884496;29;20240;-52
2022/08/29 10:39:40;;;;;;;2.80;1.00;;;23.30;99.90;;;;;;4884363;29;20241;-53
2022/08/29 10:42:12;;;;;;;1.87;0.90;;;23.40;99.90;;;;;;4884697;29;20683;-54
2022/08/29 10:44:51;;;;;;;0.97;0.90;;;23.50;99.90;;;;;;4869564;29;20253;-54
2022/08/29 10:47:27;;;;;;;1.93;0.80;;;23.60;99.90;;;;;;4866598;29;20845;-54
2022/08/29 10:50:15;;;;;;;1.30;0.80;;;23.40;99.90;;;;;;4866625;29;20245;-53
2022/08/29 10:53:03;;;;;;;2.40;0.80;;;23.40;99.90;;;;;;4869739;29;20245;-54
2022/08/29 10:55:46;;;;;;;2.03;0.80;;;23.50;99.90;;;;;;4868367;29;20269;-54
2022/08/29 10:58:24;;;;;;;1.40;1.10;;;23.50;99.90;;;;;;4868462;29;20257;-55
2022/08/29 11:00:58;;;;;;;1.73;0.90;;;23.60;99.90;;;;;;4869117;29;20246;-55
2022/08/29 11:03:34;;;;;;;1.03;0.90;;;23.70;99.90;;;;;;4869267;29;20255;-54
2022/08/29 11:06:11;;;;;;;1.97;0.80;;;23.60;99.90;;;;;;4868933;29;20290;-55
2022/08/29 11:08:44;;;;;;;1.13;0.80;;;23.50;99.90;;;;;;4871389;29;20245;-55
2022/08/29 11:11:16;;;;;;;2.80;0.90;;;23.40;99.90;;;;;;4872063;29;21221;-54
2022/08/29 11:13:49;;;;;;;1.27;0.80;;;23.40;99.90;;;;;;4885622;29;20333;-52
2022/08/29 11:16:21;;;;;;;2.20;0.90;;;23.10;99.90;;;;;;4887465;29;20253;-54
2022/08/29 11:18:54;;;;;;;2.07;0.90;;;22.90;99.90;;;;;;4886707;29;20655;-55
2022/08/29 11:21:30;;;;;;;0.80;0.80;;;23.00;99.90;;;;;;4881411;29;20721;-55
2022/08/29 11:24:01;;;;;;;1.20;0.87;;;22.90;99.90;;;;;;4885816;29;20602;-54
2022/08/29 11:26:52;;;;;;;1.13;0.80;;;22.60;99.90;;;;;;4886088;29;20245;-54
2022/08/29 11:29:33;;;;;;;1.73;0.80;;;22.50;99.90;;;;;;4868216;29;20242;-55
2022/08/29 11:32:07;;;;;;;0.83;0.83;;;22.30;99.90;;;;;;4867245;29;20325;-54
2022/08/29 11:34:47;;;;;;;1.20;0.87;;;22.40;99.90;;;;;;4865510;29;21336;-53
2022/08/29 11:37:44;;;;;;;0.77;0.70;;;22.30;99.90;;;;;;4867358;29;20257;-53
2022/08/29 11:40:22;;;;;;;0.93;0.80;;;22.30;99.90;;;;;;4866814;29;20237;-55
2022/08/29 11:43:14;;;;;;;3.17;0.80;;;22.50;99.90;;;;;;4867177;29;20233;-54
2022/08/29 11:45:44;;;;;;;1.23;0.87;;;22.50;99.90;;;;;;4866623;29;20628;-54
2022/08/29 11:48:28;;;;;;;2.90;0.90;;;22.50;99.90;;;;;;4866358;29;20234;-54
2022/08/29 11:50:58;;;;;;;1.83;1.10;;;22.30;99.90;;;;;;4867767;29;20273;-53
2022/08/29 11:53:33;;;;;;;1.13;1.00;;;22.20;99.90;;;;;;4869594;29;20334;-54
2022/08/29 11:56:22;;;;;;;1.00;0.90;;;22.10;99.90;;;;;;4869258;29;20237;-54
2022/08/29 11:58:56;;;;;;;1.47;1.00;;;21.90;99.90;;;;;;4867873;29;20233;-54
2022/08/29 12:01:55;;;;;;;1.17;0.90;;;21.90;99.90;;;;;;4873814;29;20719;-54
2022/08/29 12:04:53;;;;;;;1.90;0.90;;;21.90;99.90;;;;;;4868499;29;20745;-55
2022/08/29 12:07:32;;;;;;;1.63;0.90;;;21.90;99.90;;;;;;4868694;29;20253;-54
2022/08/29 12:10:05;;;;;;;1.00;0.90;;;22.10;99.90;;;;;;4865779;29;20587;-55
2022/08/29 12:12:42;;;;;;;2.27;0.83;;;22.30;99.90;;;;;;4869120;29;20329;-55
2022/08/29 12:15:58;;;;;;;1.27;1.00;;;22.50;99.90;;;;;;4867350;29;20363;-55
2022/08/29 12:18:35;;;;;;;2.60;1.03;;;22.60;99.90;;;;;;4864472;29;20310;-54
2022/08/29 12:21:43;;;;;;;2.87;0.80;;;22.70;99.90;;;;;;4866429;29;20250;-52
2022/08/29 12:24:28;;;;;;;1.00;0.80;;;22.60;99.90;;;;;;4866915;29;20707;-54
2022/08/29 12:26:58;;;;;;;1.93;0.80;;;22.70;99.90;;;;;;4867322;29;20802;-53
2022/08/29 12:29:29;;;;;;;4.33;0.80;;;22.80;99.90;;;;;;4866641;29;20244;-54
2022/08/29 12:32:11;;;;;;;0.93;0.73;;;23.00;99.90;;;;;;4866957;29;20715;-54
2022/08/29 12:35:19;;;;;;;1.07;0.80;;;23.30;99.90;;;;;;4867094;29;20242;-54
2022/08/29 12:37:57;;;;;;;1.50;0.70;;;23.50;99.90;;;;;;4867317;29;20606;-54
2022/08/29 12:40:46;;;;;;;1.07;0.73;;;23.70;99.90;;;;;;4866543;29;20249;-54
2022/08/29 12:43:30;;;;;;;1.20;0.90;;;23.80;99.90;;;;;;4869098;29;20242;-55
2022/08/29 12:45:59;;;;;;;1.40;0.60;;;23.60;99.90;;;;;;4868582;29;20267;-54
2022/08/29 12:48:32;;;;;;;1.03;0.70;;;23.40;99.90;;;;;;4867669;29;20249;-54
2022/08/29 12:51:03;;;;;;;2.27;0.80;;;23.40;99.90;;;;;;4867307;29;20572;-54
2022/08/29 12:53:33;;;;;;;0.70;0.70;;;23.60;99.90;;;;;;4864834;29;20240;-54
2022/08/29 12:56:12;;;;;;;2.30;0.80;;;23.70;99.90;;;;;;4867517;29;20278;-54
2022/08/29 12:58:44;;;;;;;1.07;0.70;;;23.80;99.90;;;;;;4866914;29;20958;-54
2022/08/29 13:01:29;;;;;;;1.47;0.80;;;23.90;99.90;;;;;;4867056;29;20241;-55
2022/08/29 13:04:04;;;;;;;1.00;0.80;;;23.80;99.90;;;;;;4866976;29;20276;-55
2022/08/29 13:06:34;;;;;;;0.93;0.73;;;24.00;99.90;;;;;;4868985;29;20237;-55
2022/08/29 13:09:03;;;;;;;1.97;0.80;;;24.00;99.90;;;;;;4868607;29;20242;-53
2022/08/29 13:11:32;;;;;;;0.90;0.80;;;24.10;99.90;;;;;;4865856;29;20244;-54